sensor_id;sensor_type;location;lat;lon;timestamp;temperature;humidity
1107;DHT22;540;49.448;8.612;2023-07-20T00:00:34;22.80;50.60
1107;DHT22;540;49.448;8.612;2023-07-20T00:03:12;22.60;50.40
1107;DHT22;540;49.448;8.612;2023-07-20T00:05:43;22.60;50.70
1107;DHT22;540;49.448;8.612;2023-07-20T00:08:11;22.50;50.80
1107;DHT22;540;49.448;8.612;2023-07-20T00:10:41;22.50;51.00
1107;DHT22;540;49.448;8.612;2023-07-20T00:13:08;22.50;51.00
1107;DHT22;540;49.448;8.612;2023-07-20T00:15:37;22.40;51.10
1107;DHT22;540;49.448;8.612;2023-07-20T00:18:05;22.30;51.10
1107;DHT22;540;49.448;8.612;2023-07-20T00:20:33;22.30;51.30
1107;DHT22;540;49.448;8.612;2023-07-20T00:23:01;22.20;51.40
1107;DHT22;540;49.448;8.612;2023-07-20T00:25:29;22.10;51.50
1107;DHT22;540;49.448;8.612;2023-07-20T00:27:58;22.10;51.70
1107;DHT22;540;49.448;8.612;2023-07-20T00:30:26;22.00;51.90
1107;DHT22;540;49.448;8.612;2023-07-20T00:32:53;22.00;52.20
1107;DHT22;540;49.448;8.612;2023-07-20T00:35:21;21.90;52.40
1107;DHT22;540;49.448;8.612;2023-07-20T00:37:49;21.90;52.60
1107;DHT22;540;49.448;8.612;2023-07-20T00:40:17;21.80;52.60
1107;DHT22;540;49.448;8.612;2023-07-20T00:42:45;21.60;52.60
1107;DHT22;540;49.448;8.612;2023-07-20T00:45:14;21.80;52.90
1107;DHT22;540;49.448;8.612;2023-07-20T00:47:42;21.90;52.90
1107;DHT22;540;49.448;8.612;2023-07-20T00:50:10;21.80;52.70
1107;DHT22;540;49.448;8.612;2023-07-20T00:52:39;21.90;52.90
1107;DHT22;540;49.448;8.612;2023-07-20T00:55:07;21.80;52.80
1107;DHT22;540;49.448;8.612;2023-07-20T00:57:36;21.90;53.00
1107;DHT22;540;49.448;8.612;2023-07-20T01:00:06;21.90;53.00
1107;DHT22;540;49.448;8.612;2023-07-20T01:02:35;21.80;53.10
1107;DHT22;540;49.448;8.612;2023-07-20T01:05:05;21.70;53.20
1107;DHT22;540;49.448;8.612;2023-07-20T01:07:38;21.70;53.40
1107;DHT22;540;49.448;8.612;2023-07-20T01:10:15;21.80;53.70
1107;DHT22;540;49.448;8.612;2023-07-20T01:12:48;21.30;53.80
1107;DHT22;540;49.448;8.612;2023-07-20T01:15:19;21.40;54.10
1107;DHT22;540;49.448;8.612;2023-07-20T01:17:48;21.30;54.40
1107;DHT22;540;49.448;8.612;2023-07-20T01:20:18;21.20;54.50
1107;DHT22;540;49.448;8.612;2023-07-20T01:23:07;21.00;55.30
1107;DHT22;540;49.448;8.612;2023-07-20T01:25:57;21.00;55.20
1107;DHT22;540;49.448;8.612;2023-07-20T01:28:40;20.90;55.50
1107;DHT22;540;49.448;8.612;2023-07-20T01:31:21;20.60;55.60
1107;DHT22;540;49.448;8.612;2023-07-20T01:33:52;20.80;56.10
1107;DHT22;540;49.448;8.612;2023-07-20T01:36:22;20.80;56.20
1107;DHT22;540;49.448;8.612;2023-07-20T01:38:51;20.70;56.40
1107;DHT22;540;49.448;8.612;2023-07-20T01:41:20;20.70;57.20
1107;DHT22;540;49.448;8.612;2023-07-20T01:43:48;20.80;56.80
1107;DHT22;540;49.448;8.612;2023-07-20T01:46:18;20.40;56.60
1107;DHT22;540;49.448;8.612;2023-07-20T01:48:46;20.60;56.90
1107;DHT22;540;49.448;8.612;2023-07-20T01:51:13;20.50;57.20
1107;DHT22;540;49.448;8.612;2023-07-20T01:53:41;20.40;57.50
1107;DHT22;540;49.448;8.612;2023-07-20T01:56:09;20.20;57.60
1107;DHT22;540;49.448;8.612;2023-07-20T01:58:38;20.40;57.90
1107;DHT22;540;49.448;8.612;2023-07-20T02:01:06;20.30;58.20
1107;DHT22;540;49.448;8.612;2023-07-20T02:03:35;20.30;58.30
1107;DHT22;540;49.448;8.612;2023-07-20T02:06:03;20.30;58.50
1107;DHT22;540;49.448;8.612;2023-07-20T02:08:37;20.30;58.60
1107;DHT22;540;49.448;8.612;2023-07-20T02:11:05;20.30;58.80
1107;DHT22;540;49.448;8.612;2023-07-20T02:13:32;20.30;58.90
1107;DHT22;540;49.448;8.612;2023-07-20T02:16:00;20.00;58.60
1107;DHT22;540;49.448;8.612;2023-07-20T02:18:28;20.30;58.90
1107;DHT22;540;49.448;8.612;2023-07-20T02:20:57;20.20;58.80
1107;DHT22;540;49.448;8.612;2023-07-20T02:23:25;20.30;59.10
1107;DHT22;540;49.448;8.612;2023-07-20T02:25:53;20.50;59.40
1107;DHT22;540;49.448;8.612;2023-07-20T02:28:21;20.10;59.10
1107;DHT22;540;49.448;8.612;2023-07-20T02:30:50;20.20;59.40
1107;DHT22;540;49.448;8.612;2023-07-20T02:33:18;20.00;59.40
1107;DHT22;540;49.448;8.612;2023-07-20T02:35:46;20.20;59.70
1107;DHT22;540;49.448;8.612;2023-07-20T02:38:15;20.20;60.00
1107;DHT22;540;49.448;8.612;2023-07-20T02:40:43;19.90;60.20
1107;DHT22;540;49.448;8.612;2023-07-20T02:43:11;19.80;60.30
1107;DHT22;540;49.448;8.612;2023-07-20T02:45:40;20.10;60.50
1107;DHT22;540;49.448;8.612;2023-07-20T02:48:09;19.60;60.10
1107;DHT22;540;49.448;8.612;2023-07-20T02:50:37;19.70;60.30
1107;DHT22;540;49.448;8.612;2023-07-20T02:53:04;20.00;63.00
1107;DHT22;540;49.448;8.612;2023-07-20T02:55:34;19.80;66.00
1107;DHT22;540;49.448;8.612;2023-07-20T02:58:01;19.50;66.10
1107;DHT22;540;49.448;8.612;2023-07-20T03:00:29;20.00;67.50
1107;DHT22;540;49.448;8.612;2023-07-20T03:02:57;19.60;69.20
1107;DHT22;540;49.448;8.612;2023-07-20T03:05:25;19.10;69.60
1107;DHT22;540;49.448;8.612;2023-07-20T03:07:55;18.90;69.40
1107;DHT22;540;49.448;8.612;2023-07-20T03:10:23;18.90;69.10
1107;DHT22;540;49.448;8.612;2023-07-20T03:12:52;19.10;68.40
1107;DHT22;540;49.448;8.612;2023-07-20T03:15:20;19.40;68.10
1107;DHT22;540;49.448;8.612;2023-07-20T03:17:48;18.90;67.70
1107;DHT22;540;49.448;8.612;2023-07-20T03:20:16;19.10;68.00
1107;DHT22;540;49.448;8.612;2023-07-20T03:22:44;19.10;68.00
1107;DHT22;540;49.448;8.612;2023-07-20T03:25:13;19.40;69.10
1107;DHT22;540;49.448;8.612;2023-07-20T03:27:41;19.30;69.50
1107;DHT22;540;49.448;8.612;2023-07-20T03:30:11;19.30;68.90
1107;DHT22;540;49.448;8.612;2023-07-20T03:32:38;19.10;68.50
1107;DHT22;540;49.448;8.612;2023-07-20T03:35:07;19.20;69.10
1107;DHT22;540;49.448;8.612;2023-07-20T03:37:35;19.30;76.70
1107;DHT22;540;49.448;8.612;2023-07-20T03:40:04;19.20;77.60
1107;DHT22;540;49.448;8.612;2023-07-20T03:42:31;19.70;77.70
1107;DHT22;540;49.448;8.612;2023-07-20T03:44:59;19.50;74.30
1107;DHT22;540;49.448;8.612;2023-07-20T03:47:28;19.50;71.30
1107;DHT22;540;49.448;8.612;2023-07-20T03:49:56;18.90;69.20
1107;DHT22;540;49.448;8.612;2023-07-20T03:52:24;19.30;70.10
1107;DHT22;540;49.448;8.612;2023-07-20T03:54:52;19.10;70.70
1107;DHT22;540;49.448;8.612;2023-07-20T03:57:20;18.80;70.80
1107;DHT22;540;49.448;8.612;2023-07-20T03:59:48;18.70;70.60
1107;DHT22;540;49.448;8.612;2023-07-20T04:02:16;18.60;71.70
1107;DHT22;540;49.448;8.612;2023-07-20T04:04:45;18.60;72.30
1107;DHT22;540;49.448;8.612;2023-07-20T04:07:13;18.40;72.50
1107;DHT22;540;49.448;8.612;2023-07-20T04:09:41;18.80;73.40
1107;DHT22;540;49.448;8.612;2023-07-20T04:12:09;18.50;74.00
1107;DHT22;540;49.448;8.612;2023-07-20T04:14:37;18.50;75.10
1107;DHT22;540;49.448;8.612;2023-07-20T04:17:04;18.70;76.10
1107;DHT22;540;49.448;8.612;2023-07-20T04:19:32;18.30;77.10
1107;DHT22;540;49.448;8.612;2023-07-20T04:22:01;17.80;77.40
1107;DHT22;540;49.448;8.612;2023-07-20T04:24:29;18.50;79.00
1107;DHT22;540;49.448;8.612;2023-07-20T04:26:57;18.60;79.30
1107;DHT22;540;49.448;8.612;2023-07-20T04:29:25;18.20;79.50
1107;DHT22;540;49.448;8.612;2023-07-20T04:31:53;18.50;78.40
1107;DHT22;540;49.448;8.612;2023-07-20T04:34:21;18.50;78.50
1107;DHT22;540;49.448;8.612;2023-07-20T04:36:48;18.70;78.40
1107;DHT22;540;49.448;8.612;2023-07-20T04:39:18;18.70;78.20
1107;DHT22;540;49.448;8.612;2023-07-20T04:41:57;18.50;77.90
1107;DHT22;540;49.448;8.612;2023-07-20T04:44:25;18.70;77.90
1107;DHT22;540;49.448;8.612;2023-07-20T04:46:53;18.90;77.80
1107;DHT22;540;49.448;8.612;2023-07-20T04:49:21;18.90;78.10
1107;DHT22;540;49.448;8.612;2023-07-20T04:51:49;18.90;78.70
1107;DHT22;540;49.448;8.612;2023-07-20T04:54:18;18.90;77.60
1107;DHT22;540;49.448;8.612;2023-07-20T04:56:46;19.00;77.90
1107;DHT22;540;49.448;8.612;2023-07-20T04:59:17;19.20;78.60
1107;DHT22;540;49.448;8.612;2023-07-20T05:01:45;19.10;78.30
1107;DHT22;540;49.448;8.612;2023-07-20T05:04:12;18.50;77.80
1107;DHT22;540;49.448;8.612;2023-07-20T05:06:44;18.90;79.00
1107;DHT22;540;49.448;8.612;2023-07-20T05:09:12;19.00;79.50
1107;DHT22;540;49.448;8.612;2023-07-20T05:11:41;18.90;80.10
1107;DHT22;540;49.448;8.612;2023-07-20T05:14:09;18.90;79.80
1107;DHT22;540;49.448;8.612;2023-07-20T05:16:37;19.10;80.30
1107;DHT22;540;49.448;8.612;2023-07-20T05:19:05;18.80;79.60
1107;DHT22;540;49.448;8.612;2023-07-20T05:21:33;19.20;79.60
1107;DHT22;540;49.448;8.612;2023-07-20T05:24:01;19.30;78.20
1107;DHT22;540;49.448;8.612;2023-07-20T05:26:28;19.30;77.20
1107;DHT22;540;49.448;8.612;2023-07-20T05:28:58;19.30;77.20
1107;DHT22;540;49.448;8.612;2023-07-20T05:31:25;19.30;77.20
1107;DHT22;540;49.448;8.612;2023-07-20T05:33:53;19.30;76.90
1107;DHT22;540;49.448;8.612;2023-07-20T05:36:21;19.30;77.20
1107;DHT22;540;49.448;8.612;2023-07-20T05:38:49;19.10;76.70
1107;DHT22;540;49.448;8.612;2023-07-20T05:41:17;19.70;75.40
1107;DHT22;540;49.448;8.612;2023-07-20T05:43:45;19.70;75.40
1107;DHT22;540;49.448;8.612;2023-07-20T05:46:14;19.60;75.30
1107;DHT22;540;49.448;8.612;2023-07-20T05:48:42;19.60;74.70
1107;DHT22;540;49.448;8.612;2023-07-20T05:51:10;19.80;74.50
1107;DHT22;540;49.448;8.612;2023-07-20T05:53:38;19.90;73.10
1107;DHT22;540;49.448;8.612;2023-07-20T05:56:06;20.00;72.50
1107;DHT22;540;49.448;8.612;2023-07-20T05:58:36;20.20;72.30
1107;DHT22;540;49.448;8.612;2023-07-20T06:01:04;20.30;71.90
1107;DHT22;540;49.448;8.612;2023-07-20T06:03:34;20.10;71.50
1107;DHT22;540;49.448;8.612;2023-07-20T06:06:04;20.00;71.00
1107;DHT22;540;49.448;8.612;2023-07-20T06:08:33;20.40;71.80
1107;DHT22;540;49.448;8.612;2023-07-20T06:11:01;20.40;71.80
1107;DHT22;540;49.448;8.612;2023-07-20T06:13:28;20.20;71.80
1107;DHT22;540;49.448;8.612;2023-07-20T06:15:56;20.20;71.30
1107;DHT22;540;49.448;8.612;2023-07-20T06:18:24;20.10;70.90
1107;DHT22;540;49.448;8.612;2023-07-20T06:20:53;20.50;70.80
1107;DHT22;540;49.448;8.612;2023-07-20T06:23:21;21.20;68.50
1107;DHT22;540;49.448;8.612;2023-07-20T06:25:49;23.20;61.30
1107;DHT22;540;49.448;8.612;2023-07-20T06:28:17;25.50;54.40
1107;DHT22;540;49.448;8.612;2023-07-20T06:30:45;26.50;49.90
1107;DHT22;540;49.448;8.612;2023-07-20T06:33:13;27.10;47.70
1107;DHT22;540;49.448;8.612;2023-07-20T06:35:41;27.10;46.80
1107;DHT22;540;49.448;8.612;2023-07-20T06:38:11;25.90;48.80
1107;DHT22;540;49.448;8.612;2023-07-20T06:40:41;26.50;48.80
1107;DHT22;540;49.448;8.612;2023-07-20T06:43:09;27.80;46.10
1107;DHT22;540;49.448;8.612;2023-07-20T06:45:40;28.70;43.30
1107;DHT22;540;49.448;8.612;2023-07-20T06:48:08;29.30;41.60
1107;DHT22;540;49.448;8.612;2023-07-20T06:50:36;29.90;40.50
1107;DHT22;540;49.448;8.612;2023-07-20T06:53:04;30.30;39.10
1107;DHT22;540;49.448;8.612;2023-07-20T06:55:33;30.10;38.90
1107;DHT22;540;49.448;8.612;2023-07-20T06:58:08;30.20;39.00
1107;DHT22;540;49.448;8.612;2023-07-20T07:00:35;30.10;38.50
1107;DHT22;540;49.448;8.612;2023-07-20T07:03:03;28.30;41.70
1107;DHT22;540;49.448;8.612;2023-07-20T07:05:31;27.30;44.30
1107;DHT22;540;49.448;8.612;2023-07-20T07:08:03;28.30;42.50
1107;DHT22;540;49.448;8.612;2023-07-20T07:10:34;29.30;40.20
1107;DHT22;540;49.448;8.612;2023-07-20T07:13:02;30.80;38.30
1107;DHT22;540;49.448;8.612;2023-07-20T07:15:31;31.40;36.20
1107;DHT22;540;49.448;8.612;2023-07-20T07:17:59;31.80;34.80
1107;DHT22;540;49.448;8.612;2023-07-20T07:20:27;32.10;34.40
1107;DHT22;540;49.448;8.612;2023-07-20T07:22:55;32.30;33.70
1107;DHT22;540;49.448;8.612;2023-07-20T07:25:23;32.20;33.00
1107;DHT22;540;49.448;8.612;2023-07-20T07:27:53;31.90;33.60
1107;DHT22;540;49.448;8.612;2023-07-20T07:30:22;30.70;35.10
1107;DHT22;540;49.448;8.612;2023-07-20T07:32:50;29.80;37.40
1107;DHT22;540;49.448;8.612;2023-07-20T07:35:17;30.70;36.30
1107;DHT22;540;49.448;8.612;2023-07-20T07:37:45;32.20;33.80
1107;DHT22;540;49.448;8.612;2023-07-20T07:40:33;32.40;32.90
1107;DHT22;540;49.448;8.612;2023-07-20T07:43:02;31.00;34.10
1107;DHT22;540;49.448;8.612;2023-07-20T07:45:31;29.30;37.40
1107;DHT22;540;49.448;8.612;2023-07-20T07:47:59;27.90;40.20
1107;DHT22;540;49.448;8.612;2023-07-20T07:50:27;28.50;40.70
1107;DHT22;540;49.448;8.612;2023-07-20T07:52:55;29.50;38.10
1107;DHT22;540;49.448;8.612;2023-07-20T07:55:23;28.80;38.70
1107;DHT22;540;49.448;8.612;2023-07-20T07:57:53;28.90;39.30
1107;DHT22;540;49.448;8.612;2023-07-20T08:00:22;29.80;37.40
1107;DHT22;540;49.448;8.612;2023-07-20T08:02:51;31.60;34.20
1107;DHT22;540;49.448;8.612;2023-07-20T08:05:20;33.00;30.70
1107;DHT22;540;49.448;8.612;2023-07-20T08:07:49;31.90;30.40
1107;DHT22;540;49.448;8.612;2023-07-20T08:10:18;29.90;33.70
1107;DHT22;540;49.448;8.612;2023-07-20T08:12:47;28.40;37.20
1107;DHT22;540;49.448;8.612;2023-07-20T08:15:16;28.30;37.80
1107;DHT22;540;49.448;8.612;2023-07-20T08:17:46;29.60;36.10
1107;DHT22;540;49.448;8.612;2023-07-20T08:20:16;31.00;33.10
1107;DHT22;540;49.448;8.612;2023-07-20T08:22:44;31.30;32.20
1107;DHT22;540;49.448;8.612;2023-07-20T08:25:15;31.10;33.00
1107;DHT22;540;49.448;8.612;2023-07-20T08:27:44;32.00;31.90
1107;DHT22;540;49.448;8.612;2023-07-20T08:30:14;32.50;30.60
1107;DHT22;540;49.448;8.612;2023-07-20T08:32:42;31.10;32.20
1107;DHT22;540;49.448;8.612;2023-07-20T08:35:12;29.40;35.40
1107;DHT22;540;49.448;8.612;2023-07-20T08:37:42;28.30;38.20
1107;DHT22;540;49.448;8.612;2023-07-20T08:40:11;28.00;39.00
1107;DHT22;540;49.448;8.612;2023-07-20T08:42:40;29.10;37.60
1107;DHT22;540;49.448;8.612;2023-07-20T08:45:08;30.00;35.10
1107;DHT22;540;49.448;8.612;2023-07-20T08:47:37;30.70;33.50
1107;DHT22;540;49.448;8.612;2023-07-20T08:50:08;31.40;31.00
1107;DHT22;540;49.448;8.612;2023-07-20T08:52:37;31.50;30.60
1107;DHT22;540;49.448;8.612;2023-07-20T08:55:06;32.20;29.80
1107;DHT22;540;49.448;8.612;2023-07-20T08:57:36;32.00;30.00
1107;DHT22;540;49.448;8.612;2023-07-20T09:00:07;32.00;30.60
1107;DHT22;540;49.448;8.612;2023-07-20T09:02:39;32.40;30.50
1107;DHT22;540;49.448;8.612;2023-07-20T09:05:08;33.10;29.60
1107;DHT22;540;49.448;8.612;2023-07-20T09:07:39;33.70;28.40
1107;DHT22;540;49.448;8.612;2023-07-20T09:10:08;32.30;28.90
1107;DHT22;540;49.448;8.612;2023-07-20T09:12:38;30.50;31.90
1107;DHT22;540;49.448;8.612;2023-07-20T09:15:07;30.00;33.70
1107;DHT22;540;49.448;8.612;2023-07-20T09:17:35;30.70;33.40
1107;DHT22;540;49.448;8.612;2023-07-20T09:20:04;32.00;32.40
1107;DHT22;540;49.448;8.612;2023-07-20T09:22:35;31.50;32.00
1107;DHT22;540;49.448;8.612;2023-07-20T09:25:06;31.90;31.60
1107;DHT22;540;49.448;8.612;2023-07-20T09:27:37;32.20;31.30
1107;DHT22;540;49.448;8.612;2023-07-20T09:30:06;32.60;30.10
1107;DHT22;540;49.448;8.612;2023-07-20T09:32:39;33.30;29.50
1107;DHT22;540;49.448;8.612;2023-07-20T09:35:21;33.10;29.10
1107;DHT22;540;49.448;8.612;2023-07-20T09:37:55;32.60;29.40
1107;DHT22;540;49.448;8.612;2023-07-20T09:40:29;31.30;30.60
1107;DHT22;540;49.448;8.612;2023-07-20T09:43:00;30.60;32.20
1107;DHT22;540;49.448;8.612;2023-07-20T09:45:34;30.70;32.80
1107;DHT22;540;49.448;8.612;2023-07-20T09:48:06;30.80;32.60
1107;DHT22;540;49.448;8.612;2023-07-20T09:50:40;31.00;32.20
1107;DHT22;540;49.448;8.612;2023-07-20T09:53:12;30.40;33.00
1107;DHT22;540;49.448;8.612;2023-07-20T09:55:43;29.50;33.80
1107;DHT22;540;49.448;8.612;2023-07-20T09:58:11;28.60;35.70
1107;DHT22;540;49.448;8.612;2023-07-20T10:00:41;28.90;35.90
1107;DHT22;540;49.448;8.612;2023-07-20T10:03:19;29.50;35.00
1107;DHT22;540;49.448;8.612;2023-07-20T10:05:51;30.20;33.50
1107;DHT22;540;49.448;8.612;2023-07-20T10:08:20;29.90;32.60
1107;DHT22;540;49.448;8.612;2023-07-20T10:10:54;29.80;33.90
1107;DHT22;540;49.448;8.612;2023-07-20T10:13:26;30.10;34.30
1107;DHT22;540;49.448;8.612;2023-07-20T10:16:01;30.90;33.60
1107;DHT22;540;49.448;8.612;2023-07-20T10:18:34;31.70;31.90
1107;DHT22;540;49.448;8.612;2023-07-20T10:21:06;32.10;30.40
1107;DHT22;540;49.448;8.612;2023-07-20T10:23:39;32.00;29.40
1107;DHT22;540;49.448;8.612;2023-07-20T10:26:09;32.20;29.80
1107;DHT22;540;49.448;8.612;2023-07-20T10:28:38;32.40;29.70
1107;DHT22;540;49.448;8.612;2023-07-20T10:31:07;32.80;29.40
1107;DHT22;540;49.448;8.612;2023-07-20T10:33:36;31.70;29.90
1107;DHT22;540;49.448;8.612;2023-07-20T10:36:06;31.20;30.90
1107;DHT22;540;49.448;8.612;2023-07-20T10:38:39;30.70;31.50
1107;DHT22;540;49.448;8.612;2023-07-20T10:41:17;30.20;33.00
1107;DHT22;540;49.448;8.612;2023-07-20T10:43:47;30.60;33.00
1107;DHT22;540;49.448;8.612;2023-07-20T10:46:33;31.10;31.70
1107;DHT22;540;49.448;8.612;2023-07-20T10:49:03;31.20;31.40
1107;DHT22;540;49.448;8.612;2023-07-20T10:51:39;31.20;32.10
1107;DHT22;540;49.448;8.612;2023-07-20T10:54:33;31.50;31.50
1107;DHT22;540;49.448;8.612;2023-07-20T10:57:24;31.80;30.30
1107;DHT22;540;49.448;8.612;2023-07-20T10:59:52;31.20;31.70
1107;DHT22;540;49.448;8.612;2023-07-20T11:02:42;31.00;32.60
1107;DHT22;540;49.448;8.612;2023-07-20T11:05:35;30.40;33.00
1107;DHT22;540;49.448;8.612;2023-07-20T11:08:05;30.00;33.80
1107;DHT22;540;49.448;8.612;2023-07-20T11:10:33;29.60;34.30
1107;DHT22;540;49.448;8.612;2023-07-20T11:13:19;29.70;33.70
1107;DHT22;540;49.448;8.612;2023-07-20T11:15:53;30.20;32.60
1107;DHT22;540;49.448;8.612;2023-07-20T11:18:28;30.50;31.50
1107;DHT22;540;49.448;8.612;2023-07-20T11:20:58;30.80;30.90
1107;DHT22;540;49.448;8.612;2023-07-20T11:23:26;31.40;30.40
1107;DHT22;540;49.448;8.612;2023-07-20T11:25:54;31.50;30.00
1107;DHT22;540;49.448;8.612;2023-07-20T11:28:23;31.60;29.40
1107;DHT22;540;49.448;8.612;2023-07-20T11:30:52;31.70;29.70
1107;DHT22;540;49.448;8.612;2023-07-20T11:33:21;31.90;29.40
1107;DHT22;540;49.448;8.612;2023-07-20T11:35:49;31.40;29.80
1107;DHT22;540;49.448;8.612;2023-07-20T11:38:19;30.90;30.10
1107;DHT22;540;49.448;8.612;2023-07-20T11:40:47;31.00;30.60
1107;DHT22;540;49.448;8.612;2023-07-20T11:43:15;31.40;30.50
1107;DHT22;540;49.448;8.612;2023-07-20T11:45:47;31.40;30.50
1107;DHT22;540;49.448;8.612;2023-07-20T11:48:16;31.90;29.60
1107;DHT22;540;49.448;8.612;2023-07-20T11:50:44;31.90;28.90
1107;DHT22;540;49.448;8.612;2023-07-20T11:53:12;31.70;29.30
1107;DHT22;540;49.448;8.612;2023-07-20T11:55:41;31.80;28.80
1107;DHT22;540;49.448;8.612;2023-07-20T11:58:09;31.90;28.20
1107;DHT22;540;49.448;8.612;2023-07-20T12:00:38;31.50;28.70
1107;DHT22;540;49.448;8.612;2023-07-20T12:03:07;31.70;29.30
1107;DHT22;540;49.448;8.612;2023-07-20T12:05:38;32.40;29.20
1107;DHT22;540;49.448;8.612;2023-07-20T12:08:25;32.70;28.80
1107;DHT22;540;49.448;8.612;2023-07-20T12:10:53;32.10;28.80
1107;DHT22;540;49.448;8.612;2023-07-20T12:13:21;31.20;29.30
1107;DHT22;540;49.448;8.612;2023-07-20T12:15:52;31.10;30.20
1107;DHT22;540;49.448;8.612;2023-07-20T12:18:34;31.10;29.60
1107;DHT22;540;49.448;8.612;2023-07-20T12:21:02;30.30;29.60
1107;DHT22;540;49.448;8.612;2023-07-20T12:23:35;30.40;30.30
1107;DHT22;540;49.448;8.612;2023-07-20T12:26:03;30.50;29.70
1107;DHT22;540;49.448;8.612;2023-07-20T12:28:33;30.60;29.70
1107;DHT22;540;49.448;8.612;2023-07-20T12:31:03;30.60;29.80
1107;DHT22;540;49.448;8.612;2023-07-20T12:33:32;30.80;29.60
1107;DHT22;540;49.448;8.612;2023-07-20T12:36:00;31.00;29.30
1107;DHT22;540;49.448;8.612;2023-07-20T12:38:28;30.80;28.90
1107;DHT22;540;49.448;8.612;2023-07-20T12:40:57;30.80;28.80
1107;DHT22;540;49.448;8.612;2023-07-20T12:43:27;30.50;29.10
1107;DHT22;540;49.448;8.612;2023-07-20T12:45:55;30.30;29.40
1107;DHT22;540;49.448;8.612;2023-07-20T12:48:23;30.30;29.00
1107;DHT22;540;49.448;8.612;2023-07-20T12:50:52;30.30;29.50
1107;DHT22;540;49.448;8.612;2023-07-20T12:53:20;30.40;29.10
1107;DHT22;540;49.448;8.612;2023-07-20T12:55:48;30.50;29.60
1107;DHT22;540;49.448;8.612;2023-07-20T12:58:16;30.80;29.30
1107;DHT22;540;49.448;8.612;2023-07-20T13:00:44;31.20;29.20
1107;DHT22;540;49.448;8.612;2023-07-20T13:03:12;31.30;28.90
1107;DHT22;540;49.448;8.612;2023-07-20T13:05:58;30.90;28.60
1107;DHT22;540;49.448;8.612;2023-07-20T13:08:29;31.00;29.10
1107;DHT22;540;49.448;8.612;2023-07-20T13:10:57;30.30;29.70
1107;DHT22;540;49.448;8.612;2023-07-20T13:13:25;30.40;29.90
1107;DHT22;540;49.448;8.612;2023-07-20T13:15:52;30.10;30.20
1107;DHT22;540;49.448;8.612;2023-07-20T13:18:20;30.10;30.00
1107;DHT22;540;49.448;8.612;2023-07-20T13:20:49;30.30;30.60
1107;DHT22;540;49.448;8.612;2023-07-20T13:23:18;30.00;29.80
1107;DHT22;540;49.448;8.612;2023-07-20T13:25:46;29.90;30.00
1107;DHT22;540;49.448;8.612;2023-07-20T13:28:14;29.60;30.20
1107;DHT22;540;49.448;8.612;2023-07-20T13:30:41;29.30;31.20
1107;DHT22;540;49.448;8.612;2023-07-20T13:33:11;29.50;31.00
1107;DHT22;540;49.448;8.612;2023-07-20T13:35:44;29.50;31.00
1107;DHT22;540;49.448;8.612;2023-07-20T13:38:15;29.40;31.20
1107;DHT22;540;49.448;8.612;2023-07-20T13:40:45;29.50;31.30
1107;DHT22;540;49.448;8.612;2023-07-20T13:43:13;29.60;31.10
1107;DHT22;540;49.448;8.612;2023-07-20T13:45:40;29.60;30.80
1107;DHT22;540;49.448;8.612;2023-07-20T13:48:08;29.60;31.30
1107;DHT22;540;49.448;8.612;2023-07-20T13:50:36;29.80;31.70
1107;DHT22;540;49.448;8.612;2023-07-20T13:53:07;30.00;31.80
1107;DHT22;540;49.448;8.612;2023-07-20T13:55:38;30.40;30.90
1107;DHT22;540;49.448;8.612;2023-07-20T13:58:10;30.40;30.20
1107;DHT22;540;49.448;8.612;2023-07-20T14:00:39;30.10;30.30
1107;DHT22;540;49.448;8.612;2023-07-20T14:03:07;30.10;31.40
1107;DHT22;540;49.448;8.612;2023-07-20T14:05:39;30.30;30.90
1107;DHT22;540;49.448;8.612;2023-07-20T14:08:09;30.20;30.80
1107;DHT22;540;49.448;8.612;2023-07-20T14:10:37;30.20;31.20
1107;DHT22;540;49.448;8.612;2023-07-20T14:13:10;30.10;31.30
1107;DHT22;540;49.448;8.612;2023-07-20T14:15:38;30.00;31.10
1107;DHT22;540;49.448;8.612;2023-07-20T14:18:06;30.30;30.80
1107;DHT22;540;49.448;8.612;2023-07-20T14:20:34;30.00;30.40
1107;DHT22;540;49.448;8.612;2023-07-20T14:23:05;29.50;31.10
1107;DHT22;540;49.448;8.612;2023-07-20T14:25:33;29.30;32.00
1107;DHT22;540;49.448;8.612;2023-07-20T14:28:04;29.10;32.00
1107;DHT22;540;49.448;8.612;2023-07-20T14:30:33;29.00;32.40
1107;DHT22;540;49.448;8.612;2023-07-20T14:33:01;29.00;32.20
1107;DHT22;540;49.448;8.612;2023-07-20T14:35:29;29.20;31.50
1107;DHT22;540;49.448;8.612;2023-07-20T14:37:57;29.10;31.10
1107;DHT22;540;49.448;8.612;2023-07-20T14:40:25;29.00;31.70
1107;DHT22;540;49.448;8.612;2023-07-20T14:42:53;28.80;32.70
1107;DHT22;540;49.448;8.612;2023-07-20T14:45:21;29.00;32.90
1107;DHT22;540;49.448;8.612;2023-07-20T14:47:50;29.10;32.50
1107;DHT22;540;49.448;8.612;2023-07-20T14:50:21;29.00;31.40
1107;DHT22;540;49.448;8.612;2023-07-20T14:52:49;28.80;31.40
1107;DHT22;540;49.448;8.612;2023-07-20T14:55:16;28.70;31.60
1107;DHT22;540;49.448;8.612;2023-07-20T14:57:45;28.80;31.90
1107;DHT22;540;49.448;8.612;2023-07-20T15:00:13;28.80;31.50
1107;DHT22;540;49.448;8.612;2023-07-20T15:02:42;28.60;31.00
1107;DHT22;540;49.448;8.612;2023-07-20T15:05:12;28.70;31.70
1107;DHT22;540;49.448;8.612;2023-07-20T15:07:47;28.80;31.20
1107;DHT22;540;49.448;8.612;2023-07-20T15:10:15;28.90;30.20
1107;DHT22;540;49.448;8.612;2023-07-20T15:12:43;29.00;29.70
1107;DHT22;540;49.448;8.612;2023-07-20T15:15:13;28.90;29.70
1107;DHT22;540;49.448;8.612;2023-07-20T15:17:43;28.70;30.90
1107;DHT22;540;49.448;8.612;2023-07-20T15:20:13;28.90;30.60
1107;DHT22;540;49.448;8.612;2023-07-20T15:22:41;29.00;30.00
1107;DHT22;540;49.448;8.612;2023-07-20T15:25:12;28.90;29.90
1107;DHT22;540;49.448;8.612;2023-07-20T15:27:40;28.90;29.80
1107;DHT22;540;49.448;8.612;2023-07-20T15:30:16;29.00;29.90
1107;DHT22;540;49.448;8.612;2023-07-20T15:32:46;29.10;30.30
1107;DHT22;540;49.448;8.612;2023-07-20T15:35:19;29.30;30.80
1107;DHT22;540;49.448;8.612;2023-07-20T15:37:46;29.40;31.30
1107;DHT22;540;49.448;8.612;2023-07-20T15:40:14;29.30;31.40
1107;DHT22;540;49.448;8.612;2023-07-20T15:42:42;29.10;31.60
1107;DHT22;540;49.448;8.612;2023-07-20T15:45:19;28.90;32.30
1107;DHT22;540;49.448;8.612;2023-07-20T15:47:47;29.00;32.10
1107;DHT22;540;49.448;8.612;2023-07-20T15:50:15;29.00;32.60
1107;DHT22;540;49.448;8.612;2023-07-20T15:52:48;29.00;31.40
1107;DHT22;540;49.448;8.612;2023-07-20T15:55:17;29.00;31.00
1107;DHT22;540;49.448;8.612;2023-07-20T15:57:44;28.70;30.20
1107;DHT22;540;49.448;8.612;2023-07-20T16:00:13;28.40;31.40
1107;DHT22;540;49.448;8.612;2023-07-20T16:02:41;28.40;32.10
1107;DHT22;540;49.448;8.612;2023-07-20T16:05:09;28.40;32.30
1107;DHT22;540;49.448;8.612;2023-07-20T16:07:40;28.10;33.10
1107;DHT22;540;49.448;8.612;2023-07-20T16:10:11;28.30;34.00
1107;DHT22;540;49.448;8.612;2023-07-20T16:12:39;28.10;34.60
1107;DHT22;540;49.448;8.612;2023-07-20T16:15:09;28.10;35.20
1107;DHT22;540;49.448;8.612;2023-07-20T16:17:37;27.90;35.30
1107;DHT22;540;49.448;8.612;2023-07-20T16:20:06;27.80;35.30
1107;DHT22;540;49.448;8.612;2023-07-20T16:22:34;27.70;35.80
1107;DHT22;540;49.448;8.612;2023-07-20T16:25:02;27.70;36.00
1107;DHT22;540;49.448;8.612;2023-07-20T16:27:32;27.70;35.50
1107;DHT22;540;49.448;8.612;2023-07-20T16:30:00;27.70;35.70
1107;DHT22;540;49.448;8.612;2023-07-20T16:32:28;27.80;35.90